Time,TemperatureF,DewpointF,PressureIn,WindDirection,WindDirectionDegrees,WindSpeedMPH,WindSpeedGustMPH,Humidity,HourlyPrecipIn,Conditions,Clouds,dailyrainin,SoftwareType,DateUTC
2013-04-30 00:02:00,72.7,62.2,29.98,ESE,103,1.0,3.0,70,0.00,,,0.00,meteohub,2013-04-30 10:02:00,
2013-04-30 00:07:00,72.7,62.2,29.98,East,100,2.0,4.0,70,0.00,,,0.00,meteohub,2013-04-30 10:07:00,
2013-04-30 00:12:00,72.5,61.7,29.97,East,94,2.0,4.0,69,0.00,,,0.00,meteohub,2013-04-30 10:12:00,
2013-04-30 00:17:00,72.3,61.5,29.97,East,81,3.0,4.0,69,0.00,,,0.00,meteohub,2013-04-30 10:17:00,
2013-04-30 00:22:00,72.1,61.3,29.97,East,82,3.0,3.0,69,0.00,,,0.00,meteohub,2013-04-30 10:22:00,
2013-04-30 00:27:00,72.1,61.3,29.97,East,84,2.0,3.0,69,0.00,,,0.00,meteohub,2013-04-30 10:27:00,
2013-04-30 00:32:00,72.0,61.2,29.97,East,89,2.0,3.0,69,0.00,,,0.00,meteohub,2013-04-30 10:32:00,
2013-04-30 00:37:00,72.0,61.2,29.97,East,101,2.0,3.0,69,0.00,,,0.00,meteohub,2013-04-30 10:37:00,
2013-04-30 00:42:00,72.1,61.9,29.97,ESE,106,2.0,3.0,70,0.00,,,0.00,meteohub,2013-04-30 10:42:00,
2013-04-30 00:47:00,72.1,62.6,29.97,ESE,108,2.0,4.0,72,0.00,,,0.00,meteohub,2013-04-30 10:47:00,
2013-04-30 00:52:00,72.3,63.1,29.96,ESE,105,3.0,4.0,73,0.00,,,0.00,meteohub,2013-04-30 10:52:00,
2013-04-30 00:57:00,72.3,63.1,29.96,East,94,2.0,4.0,73,0.00,,,0.00,meteohub,2013-04-30 10:57:00,
2013-04-30 01:02:00,72.3,63.1,29.96,East,101,1.0,4.0,73,0.00,,,0.00,meteohub,2013-04-30 11:02:00,
2013-04-30 01:07:00,72.3,63.5,29.97,ESE,112,2.0,4.0,74,0.00,,,0.00,meteohub,2013-04-30 11:07:00,
2013-04-30 01:12:00,72.1,63.3,29.96,ESE,102,2.0,2.0,74,0.00,,,0.00,meteohub,2013-04-30 11:12:00,
2013-04-30 01:17:00,72.0,63.1,29.96,East,96,1.0,2.0,74,0.00,,,0.00,meteohub,2013-04-30 11:17:00,
2013-04-30 01:22:00,72.0,63.7,29.96,East,88,2.0,2.0,75,0.00,,,0.00,meteohub,2013-04-30 11:22:00,
2013-04-30 01:27:00,71.8,63.5,29.96,East,96,2.0,2.0,75,0.00,,,0.00,meteohub,2013-04-30 11:27:00,
2013-04-30 01:32:00,71.6,63.0,29.96,East,100,2.0,3.0,74,0.00,,,0.00,meteohub,2013-04-30 11:32:00,
2013-04-30 01:37:00,71.8,63.5,29.96,ESE,102,4.0,4.0,75,0.00,,,0.00,meteohub,2013-04-30 11:37:00,
2013-04-30 01:42:00,72.0,63.7,29.96,East,96,2.0,4.0,75,0.00,,,0.00,meteohub,2013-04-30 11:42:00,
2013-04-30 01:47:00,72.0,63.7,29.96,East,92,2.0,4.0,75,0.00,,,0.00,meteohub,2013-04-30 11:47:00,
2013-04-30 01:52:00,72.0,63.7,29.96,ENE,77,1.0,4.0,75,0.00,,,0.00,meteohub,2013-04-30 11:52:00,
2013-04-30 01:57:00,72.0,63.7,29.96,East,84,2.0,3.0,75,0.00,,,0.00,meteohub,2013-04-30 11:57:00,
2013-04-30 02:02:00,72.0,63.7,29.96,East,88,1.0,2.0,75,0.00,,,0.00,meteohub,2013-04-30 12:02:00,
2013-04-30 02:07:00,72.0,63.1,29.96,East,87,2.0,2.0,74,0.00,,,0.00,meteohub,2013-04-30 12:07:00,
2013-04-30 02:12:00,71.8,63.0,29.96,East,91,2.0,3.0,74,0.00,,,0.00,meteohub,2013-04-30 12:12:00,
2013-04-30 02:17:00,71.6,63.0,29.96,East,91,2.0,3.0,74,0.00,,,0.00,meteohub,2013-04-30 12:17:00,
2013-04-30 02:22:00,71.8,63.0,29.96,East,92,2.0,3.0,74,0.00,,,0.00,meteohub,2013-04-30 12:22:00,
2013-04-30 02:27:00,71.8,63.0,29.96,East,80,1.0,3.0,74,0.00,,,0.00,meteohub,2013-04-30 12:27:00,
2013-04-30 02:33:00,71.6,63.0,29.96,ESE,104,1.0,3.0,74,0.00,,,0.00,meteohub,2013-04-30 12:33:00,
2013-04-30 02:38:00,71.4,62.8,29.96,East,84,2.0,3.0,74,0.00,,,0.00,meteohub,2013-04-30 12:38:00,
2013-04-30 02:43:00,71.2,62.6,29.96,East,85,1.0,2.0,74,0.00,,,0.00,meteohub,2013-04-30 12:43:00,
2013-04-30 02:48:00,71.2,63.0,29.96,East,94,1.0,2.0,75,0.00,,,0.00,meteohub,2013-04-30 12:48:00,
2013-04-30 02:53:00,71.1,62.8,29.95,ENE,78,1.0,2.0,75,0.00,,,0.00,meteohub,2013-04-30 12:53:00,
2013-04-30 02:58:00,71.1,62.8,29.95,East,84,1.0,2.0,75,0.00,,,0.00,meteohub,2013-04-30 12:58:00,
2013-04-30 03:03:00,71.1,63.1,29.95,ENE,71,2.0,2.0,76,0.00,,,0.00,meteohub,2013-04-30 13:03:00,
2013-04-30 03:08:00,71.2,63.3,29.95,East,86,2.0,3.0,76,0.00,,,0.00,meteohub,2013-04-30 13:08:00,
2013-04-30 03:13:00,71.2,63.3,29.95,East,79,1.0,3.0,76,0.00,,,0.00,meteohub,2013-04-30 13:13:00,
2013-04-30 03:18:00,71.2,63.7,29.95,ENE,75,1.0,3.0,77,0.00,,,0.00,meteohub,2013-04-30 13:18:00,
2013-04-30 03:23:00,71.2,63.7,29.94,ENE,71,2.0,3.0,77,0.00,,,0.00,meteohub,2013-04-30 13:23:00,
2013-04-30 03:28:00,71.2,63.7,29.94,East,97,1.0,2.0,77,0.00,,,0.00,meteohub,2013-04-30 13:28:00,
2013-04-30 03:33:00,71.2,64.0,29.94,East,84,1.0,2.0,78,0.00,,,0.00,meteohub,2013-04-30 13:33:00,
2013-04-30 03:38:00,71.2,64.0,29.94,East,86,1.0,2.0,78,0.00,,,0.00,meteohub,2013-04-30 13:38:00,
2013-04-30 03:43:00,71.2,64.0,29.94,East,89,0.0,2.0,78,0.00,,,0.00,meteohub,2013-04-30 13:43:00,
2013-04-30 03:48:00,71.2,64.4,29.94,ESE,105,1.0,2.0,79,0.00,,,0.00,meteohub,2013-04-30 13:48:00,
2013-04-30 03:53:00,71.2,64.4,29.95,East,85,3.0,3.0,79,0.00,,,0.00,meteohub,2013-04-30 13:53:00,
2013-04-30 03:58:00,71.2,64.4,29.94,East,80,1.0,3.0,79,0.00,,,0.00,meteohub,2013-04-30 13:58:00,
2013-04-30 04:04:00,71.1,64.2,29.94,East,87,1.0,3.0,79,0.00,,,0.00,meteohub,2013-04-30 14:04:00,
2013-04-30 04:09:00,71.1,64.2,29.95,East,84,1.0,3.0,79,0.00,,,0.00,meteohub,2013-04-30 14:09:00,
2013-04-30 04:14:00,70.9,63.7,29.95,East,84,2.0,4.0,78,0.00,,,0.00,meteohub,2013-04-30 14:14:00,
2013-04-30 04:19:00,70.9,63.3,29.94,ESE,105,2.0,4.0,77,0.00,,,0.00,meteohub,2013-04-30 14:19:00,
2013-04-30 04:24:00,70.7,62.8,29.94,East,82,2.0,4.0,76,0.00,,,0.00,meteohub,2013-04-30 14:24:00,
2013-04-30 04:29:00,70.9,63.0,29.94,East,94,3.0,3.0,76,0.00,,,0.00,meteohub,2013-04-30 14:29:00,
2013-04-30 04:34:00,70.9,63.3,29.94,East,82,2.0,3.0,77,0.00,,,0.00,meteohub,2013-04-30 14:34:00,
2013-04-30 04:39:00,70.9,63.0,29.94,East,84,2.0,3.0,76,0.00,,,0.00,meteohub,2013-04-30 14:39:00,
2013-04-30 04:44:00,70.9,63.0,29.94,East,92,3.0,3.0,76,0.00,,,0.00,meteohub,2013-04-30 14:44:00,
2013-04-30 04:49:00,70.7,62.8,29.94,East,94,2.0,3.0,76,0.00,,,0.00,meteohub,2013-04-30 14:49:00,
2013-04-30 04:54:00,70.7,62.8,29.95,East,90,2.0,3.0,76,0.00,,,0.00,meteohub,2013-04-30 14:54:00,
2013-04-30 04:59:00,70.5,62.6,29.95,East,88,1.0,3.0,76,0.00,,,0.00,meteohub,2013-04-30 14:59:00,
2013-04-30 05:04:00,70.5,62.6,29.95,East,82,1.0,3.0,76,0.00,,,0.00,meteohub,2013-04-30 15:04:00,
2013-04-30 05:09:00,70.3,62.4,29.95,ENE,78,2.0,3.0,76,0.00,,,0.00,meteohub,2013-04-30 15:09:00,
2013-04-30 05:14:00,70.2,62.2,29.95,ENE,73,1.0,3.0,76,0.00,,,0.00,meteohub,2013-04-30 15:14:00,
2013-04-30 05:19:00,70.2,62.2,29.95,ENE,78,2.0,2.0,76,0.00,,,0.00,meteohub,2013-04-30 15:19:00,
2013-04-30 05:24:00,70.2,62.2,29.96,ENE,75,3.0,3.0,76,0.00,,,0.00,meteohub,2013-04-30 15:24:00,
2013-04-30 05:29:00,70.2,62.2,29.96,ENE,69,3.0,3.0,76,0.00,,,0.00,meteohub,2013-04-30 15:29:00,
2013-04-30 05:35:00,70.2,62.2,29.96,ENE,71,2.0,3.0,76,0.00,,,0.00,meteohub,2013-04-30 15:35:00,
2013-04-30 05:40:00,70.3,62.8,29.96,East,79,1.0,3.0,77,0.00,,,0.00,meteohub,2013-04-30 15:40:00,
2013-04-30 05:45:00,70.3,62.8,29.96,East,80,1.0,3.0,77,0.00,,,0.00,meteohub,2013-04-30 15:45:00,
2013-04-30 05:50:00,70.3,62.8,29.96,ENE,75,1.0,3.0,77,0.00,,,0.00,meteohub,2013-04-30 15:50:00,
2013-04-30 05:55:00,70.3,62.8,29.96,East,98,1.0,3.0,77,0.00,,,0.00,meteohub,2013-04-30 15:55:00,
2013-04-30 06:00:00,70.3,62.8,29.96,East,81,2.0,3.0,77,0.00,,,0.00,meteohub,2013-04-30 16:00:00,
2013-04-30 06:05:00,70.3,62.8,29.96,ENE,72,1.0,2.0,77,0.00,,,0.00,meteohub,2013-04-30 16:05:00,
2013-04-30 06:10:00,70.3,62.8,29.96,ENE,73,2.0,2.0,77,0.00,,,0.00,meteohub,2013-04-30 16:10:00,
2013-04-30 06:15:00,70.3,62.8,29.96,East,98,2.0,3.0,77,0.00,,,0.00,meteohub,2013-04-30 16:15:00,
2013-04-30 06:20:00,70.3,62.8,29.96,ENE,73,2.0,3.0,77,0.00,,,0.00,meteohub,2013-04-30 16:20:00,
2013-04-30 06:26:00,70.3,62.8,29.96,East,86,2.0,3.0,77,0.00,,,0.00,meteohub,2013-04-30 16:26:00,
2013-04-30 06:31:00,70.2,63.0,29.97,East,87,2.0,3.0,78,0.00,,,0.00,meteohub,2013-04-30 16:31:00,
2013-04-30 06:36:00,70.3,62.8,29.97,East,80,3.0,3.0,77,0.00,,,0.00,meteohub,2013-04-30 16:36:00,
2013-04-30 06:41:00,70.7,63.1,29.97,East,86,2.0,3.0,77,0.00,,,0.00,meteohub,2013-04-30 16:41:00,
2013-04-30 06:46:00,71.2,63.3,29.97,East,96,1.0,3.0,76,0.00,,,0.00,meteohub,2013-04-30 16:46:00,
2013-04-30 06:51:00,72.0,63.7,29.97,East,96,2.0,3.0,75,0.00,,,0.00,meteohub,2013-04-30 16:51:00,
2013-04-30 06:56:00,72.7,63.9,29.97,East,100,0.0,2.0,74,0.00,,,0.00,meteohub,2013-04-30 16:56:00,
2013-04-30 07:01:00,73.6,64.0,29.97,East,98,2.0,2.0,72,0.00,,,0.00,meteohub,2013-04-30 17:01:00,
2013-04-30 07:06:00,74.3,64.2,29.97,ESE,111,0.0,2.0,71,0.00,,,0.00,meteohub,2013-04-30 17:06:00,
2013-04-30 07:11:00,75.4,64.9,29.97,ESE,111,1.0,2.0,70,0.00,,,0.00,meteohub,2013-04-30 17:11:00,
2013-04-30 07:16:00,76.5,65.5,29.98,ESE,111,0.0,2.0,69,0.00,,,0.00,meteohub,2013-04-30 17:16:00,
2013-04-30 07:21:00,76.6,64.4,29.97,ESE,111,1.0,1.0,66,0.00,,,0.00,meteohub,2013-04-30 17:21:00,
2013-04-30 07:26:00,76.5,65.1,29.98,West,273,1.0,1.0,68,0.00,,,0.00,meteohub,2013-04-30 17:26:00,
2013-04-30 07:31:00,76.3,65.3,29.98,WSW,248,2.0,2.0,69,0.00,,,0.00,meteohub,2013-04-30 17:31:00,
2013-04-30 07:36:00,76.3,64.9,29.98,WSW,255,2.0,2.0,68,0.00,,,0.00,meteohub,2013-04-30 17:36:00,
2013-04-30 07:41:00,76.3,65.3,29.98,WSW,243,1.0,3.0,69,0.00,,,0.00,meteohub,2013-04-30 17:41:00,
2013-04-30 07:46:00,76.5,66.0,29.98,SW,234,2.0,3.0,70,0.00,,,0.00,meteohub,2013-04-30 17:46:00,
2013-04-30 07:51:00,76.6,66.6,29.98,SW,232,3.0,3.0,71,0.00,,,0.00,meteohub,2013-04-30 17:51:00,
2013-04-30 07:57:00,76.6,66.2,29.98,WSW,257,3.0,4.0,70,0.00,,,0.00,meteohub,2013-04-30 17:57:00,
2013-04-30 08:02:00,76.5,66.4,29.98,West,274,2.0,4.0,71,0.00,,,0.00,meteohub,2013-04-30 18:02:00,
2013-04-30 08:07:00,76.5,66.7,29.99,West,259,3.0,4.0,72,0.00,,,0.00,meteohub,2013-04-30 18:07:00,
2013-04-30 08:12:00,76.5,67.6,29.99,SW,228,2.0,5.0,74,0.00,,,0.00,meteohub,2013-04-30 18:12:00,
2013-04-30 08:17:00,76.6,67.6,29.99,WNW,286,3.0,5.0,74,0.00,,,0.00,meteohub,2013-04-30 18:17:00,
2013-04-30 08:22:00,76.5,67.6,29.99,West,274,3.0,5.0,74,0.00,,,0.00,meteohub,2013-04-30 18:22:00,
2013-04-30 08:27:00,76.5,67.1,29.99,West,280,3.0,5.0,73,0.00,,,0.00,meteohub,2013-04-30 18:27:00,
2013-04-30 08:32:00,76.5,66.7,29.99,WNW,295,3.0,6.0,72,0.00,,,0.00,meteohub,2013-04-30 18:32:00,
2013-04-30 08:37:00,76.5,68.0,29.99,WNW,294,4.0,6.0,75,0.00,,,0.00,meteohub,2013-04-30 18:37:00,
2013-04-30 08:42:00,76.6,68.2,30.00,West,276,3.0,6.0,75,0.00,,,0.00,meteohub,2013-04-30 18:42:00,
2013-04-30 08:47:00,76.5,68.4,30.00,WNW,287,3.0,6.0,76,0.00,,,0.00,meteohub,2013-04-30 18:47:00,
2013-04-30 08:52:00,76.3,68.2,30.00,West,262,3.0,6.0,76,0.00,,,0.00,meteohub,2013-04-30 18:52:00,
2013-04-30 08:57:00,76.6,68.5,30.00,West,274,5.0,6.0,76,0.00,,,0.00,meteohub,2013-04-30 18:57:00,
2013-04-30 09:02:00,76.6,68.2,30.00,SW,232,4.0,6.0,75,0.00,,,0.00,meteohub,2013-04-30 19:02:00,
2013-04-30 09:07:00,77.2,69.1,30.00,WSW,257,4.0,6.0,76,0.00,,,0.00,meteohub,2013-04-30 19:07:00,
2013-04-30 09:12:00,77.2,69.1,30.00,WSW,245,4.0,6.0,76,0.00,,,0.00,meteohub,2013-04-30 19:12:00,
2013-04-30 09:17:00,77.2,69.1,30.00,West,264,4.0,7.0,76,0.00,,,0.00,meteohub,2013-04-30 19:17:00,
2013-04-30 09:23:00,77.4,69.3,30.00,SW,228,4.0,7.0,76,0.00,,,0.00,meteohub,2013-04-30 19:23:00,
2013-04-30 09:28:00,77.4,69.6,30.00,West,281,3.0,7.0,77,0.00,,,0.00,meteohub,2013-04-30 19:28:00,
2013-04-30 09:33:00,77.4,69.3,30.00,SW,236,3.0,8.0,76,0.00,,,0.00,meteohub,2013-04-30 19:33:00,
2013-04-30 09:38:00,77.5,69.4,30.00,WSW,255,7.0,8.0,76,0.00,,,0.00,meteohub,2013-04-30 19:38:00,
2013-04-30 09:43:00,77.7,69.6,30.00,WSW,253,4.0,8.0,76,0.00,,,0.00,meteohub,2013-04-30 19:43:00,
2013-04-30 09:48:00,77.7,69.6,30.00,West,262,5.0,8.0,76,0.00,,,0.00,meteohub,2013-04-30 19:48:00,
2013-04-30 09:53:00,77.7,68.7,30.00,WSW,250,5.0,9.0,74,0.00,,,0.00,meteohub,2013-04-30 19:53:00,
2013-04-30 09:58:00,77.5,68.9,30.00,SW,231,7.0,11.0,75,0.00,,,0.00,meteohub,2013-04-30 19:58:00,
2013-04-30 10:03:00,77.9,68.5,30.00,WSW,257,7.0,11.0,73,0.00,,,0.00,meteohub,2013-04-30 20:03:00,
2013-04-30 10:08:00,78.4,69.8,30.00,SW,233,8.0,11.0,75,0.00,,,0.00,meteohub,2013-04-30 20:08:00,
2013-04-30 10:13:00,79.0,69.6,30.00,WSW,257,10.0,11.0,73,0.00,,,0.00,meteohub,2013-04-30 20:13:00,
2013-04-30 10:18:00,78.6,69.6,29.99,WSW,248,11.0,11.0,74,0.00,,,0.00,meteohub,2013-04-30 20:18:00,
2013-04-30 10:23:00,78.4,69.8,29.99,West,266,8.0,12.0,75,0.00,,,0.00,meteohub,2013-04-30 20:23:00,
2013-04-30 10:28:00,78.6,70.0,29.99,SW,233,7.0,12.0,75,0.00,,,0.00,meteohub,2013-04-30 20:28:00,
2013-04-30 10:33:00,79.0,70.3,29.99,WSW,245,6.0,11.0,75,0.00,,,0.00,meteohub,2013-04-30 20:33:00,
2013-04-30 10:38:00,78.6,70.0,29.99,SW,219,4.0,11.0,75,0.00,,,0.00,meteohub,2013-04-30 20:38:00,
2013-04-30 10:43:00,78.6,70.0,29.99,SW,231,6.0,12.0,75,0.00,,,0.00,meteohub,2013-04-30 20:43:00,
2013-04-30 10:49:00,79.0,70.3,29.99,SW,222,9.0,12.0,75,0.00,,,0.00,meteohub,2013-04-30 20:49:00,
2013-04-30 10:54:00,79.5,70.5,29.99,SW,226,6.0,12.0,74,0.00,,,0.00,meteohub,2013-04-30 20:54:00,
2013-04-30 10:59:00,79.7,69.8,29.99,SW,224,3.0,11.0,72,0.00,,,0.00,meteohub,2013-04-30 20:59:00,
2013-04-30 11:04:00,80.1,68.9,29.99,WSW,255,8.0,11.0,69,0.00,,,0.00,meteohub,2013-04-30 21:04:00,
2013-04-30 11:09:00,79.9,68.4,29.99,West,275,5.0,9.0,68,0.00,,,0.00,meteohub,2013-04-30 21:09:00,
2013-04-30 11:14:00,79.7,67.3,29.98,WSW,253,5.0,9.0,66,0.00,,,0.00,meteohub,2013-04-30 21:14:00,
2013-04-30 11:19:00,79.9,68.0,29.98,West,275,5.0,9.0,67,0.00,,,0.00,meteohub,2013-04-30 21:19:00,
2013-04-30 11:24:00,79.9,67.1,29.98,WSW,255,4.0,9.0,65,0.00,,,0.00,meteohub,2013-04-30 21:24:00,
2013-04-30 11:29:00,79.9,68.4,29.98,West,269,5.0,8.0,68,0.00,,,0.00,meteohub,2013-04-30 21:29:00,
2013-04-30 11:34:00,79.9,68.0,29.98,West,271,5.0,9.0,67,0.00,,,0.00,meteohub,2013-04-30 21:34:00,
2013-04-30 11:39:00,79.9,67.5,29.98,West,268,4.0,9.0,66,0.00,,,0.00,meteohub,2013-04-30 21:39:00,
2013-04-30 11:44:00,79.9,67.1,29.98,WNW,295,7.0,9.0,65,0.00,,,0.00,meteohub,2013-04-30 21:44:00,
2013-04-30 11:49:00,79.5,66.7,29.98,WNW,283,6.0,9.0,65,0.00,,,0.00,meteohub,2013-04-30 21:49:00,
2013-04-30 11:54:00,79.7,67.3,29.98,WNW,285,6.0,9.0,66,0.00,,,0.00,meteohub,2013-04-30 21:54:00,
2013-04-30 11:59:00,79.5,66.2,29.98,WNW,284,3.0,9.0,64,0.00,,,0.00,meteohub,2013-04-30 21:59:00,
2013-04-30 12:04:00,79.5,67.6,29.98,WNW,288,3.0,9.0,67,0.00,,,0.00,meteohub,2013-04-30 22:04:00,
2013-04-30 12:09:00,79.5,66.7,29.98,WNW,295,4.0,9.0,65,0.00,,,0.00,meteohub,2013-04-30 22:09:00,
2013-04-30 12:14:00,79.5,67.1,29.98,WSW,257,4.0,9.0,66,0.00,,,0.00,meteohub,2013-04-30 22:14:00,
2013-04-30 12:20:00,79.5,67.1,29.98,WNW,294,3.0,8.0,66,0.00,,,0.00,meteohub,2013-04-30 22:20:00,
2013-04-30 12:25:00,79.7,67.3,29.98,West,276,3.0,6.0,66,0.00,,,0.00,meteohub,2013-04-30 22:25:00,
2013-04-30 12:30:00,79.5,67.6,29.98,WNW,294,3.0,6.0,67,0.00,,,0.00,meteohub,2013-04-30 22:30:00,
2013-04-30 12:35:00,79.3,66.9,29.98,NW,306,3.0,5.0,66,0.00,,,0.00,meteohub,2013-04-30 22:35:00,
2013-04-30 12:40:00,79.7,67.3,29.98,NW,310,1.0,5.0,66,0.00,,,0.00,meteohub,2013-04-30 22:40:00,
2013-04-30 12:45:00,80.1,67.6,29.98,WNW,297,1.0,5.0,66,0.00,,,0.00,meteohub,2013-04-30 22:45:00,
2013-04-30 12:50:00,80.2,66.9,29.98,NW,316,1.0,5.0,64,0.00,,,0.00,meteohub,2013-04-30 22:50:00,
2013-04-30 12:55:00,80.1,67.6,29.98,NW,323,0.0,3.0,66,0.00,,,0.00,meteohub,2013-04-30 22:55:00,
2013-04-30 13:00:00,80.1,66.7,29.97,WNW,302,3.0,5.0,64,0.00,,,0.00,meteohub,2013-04-30 23:00:00,
2013-04-30 13:05:00,79.7,67.3,29.97,WNW,284,5.0,8.0,66,0.00,,,0.00,meteohub,2013-04-30 23:05:00,
2013-04-30 13:10:00,79.7,67.3,29.97,NNW,328,2.0,8.0,66,0.00,,,0.00,meteohub,2013-04-30 23:10:00,
2013-04-30 13:15:00,79.7,66.9,29.96,WNW,294,5.0,8.0,65,0.00,,,0.00,meteohub,2013-04-30 23:15:00,
2013-04-30 13:20:00,79.5,67.1,29.96,NW,316,3.0,8.0,66,0.00,,,0.00,meteohub,2013-04-30 23:20:00,
2013-04-30 13:25:00,80.1,68.2,29.96,WNW,297,3.0,8.0,67,0.00,,,0.00,meteohub,2013-04-30 23:25:00,
2013-04-30 13:30:00,79.7,66.4,29.96,West,273,3.0,7.0,64,0.00,,,0.00,meteohub,2013-04-30 23:30:00,
2013-04-30 13:35:00,79.5,66.7,29.96,NW,319,3.0,7.0,65,0.00,,,0.00,meteohub,2013-04-30 23:35:00,
2013-04-30 13:40:00,79.5,66.7,29.96,NW,315,3.0,7.0,65,0.00,,,0.00,meteohub,2013-04-30 23:40:00,
2013-04-30 13:46:00,79.3,66.0,29.96,NW,325,3.0,6.0,64,0.00,,,0.00,meteohub,2013-04-30 23:46:00,
2013-04-30 13:51:00,79.5,66.7,29.96,WNW,301,5.0,7.0,65,0.00,,,0.00,meteohub,2013-04-30 23:51:00,
2013-04-30 13:56:00,79.2,65.8,29.96,West,276,5.0,7.0,64,0.00,,,0.00,meteohub,2013-04-30 23:56:00,
2013-04-30 14:01:00,79.2,67.3,29.96,NW,312,3.0,8.0,67,0.00,,,0.00,meteohub,2013-05-01 00:01:00,
2013-04-30 14:06:00,79.2,67.3,29.96,NW,305,4.0,8.0,67,0.00,,,0.00,meteohub,2013-05-01 00:06:00,
2013-04-30 14:11:00,79.2,67.3,29.96,North,349,2.0,8.0,67,0.00,,,0.00,meteohub,2013-05-01 00:11:00,
2013-04-30 14:16:00,79.2,67.3,29.96,WNW,293,5.0,6.0,67,0.00,,,0.00,meteohub,2013-05-01 00:16:00,
2013-04-30 14:21:00,79.2,66.7,29.96,NW,304,6.0,6.0,66,0.00,,,0.00,meteohub,2013-05-01 00:21:00,
2013-04-30 14:26:00,79.2,67.6,29.96,WNW,294,6.0,8.0,68,0.00,,,0.00,meteohub,2013-05-01 00:26:00,
2013-04-30 14:31:00,79.2,68.2,29.96,NW,304,4.0,8.0,69,0.00,,,0.00,meteohub,2013-05-01 00:31:00,
2013-04-30 14:36:00,79.0,68.4,29.96,WNW,288,5.0,9.0,70,0.00,,,0.00,meteohub,2013-05-01 00:36:00,
2013-04-30 14:41:00,79.0,68.7,29.96,WNW,294,4.0,9.0,71,0.00,,,0.00,meteohub,2013-05-01 00:41:00,
2013-04-30 14:46:00,78.8,69.4,29.95,WSW,257,5.0,9.0,73,0.00,,,0.00,meteohub,2013-05-01 00:46:00,
2013-04-30 14:51:00,78.4,69.1,29.95,WNW,295,5.0,8.0,73,0.00,,,0.00,meteohub,2013-05-01 00:51:00,
2013-04-30 14:56:00,78.6,69.3,29.95,NW,316,6.0,8.0,73,0.00,,,0.00,meteohub,2013-05-01 00:56:00,
2013-04-30 15:01:00,78.6,69.3,29.95,WNW,295,6.0,8.0,73,0.00,,,0.00,meteohub,2013-05-01 01:01:00,
2013-04-30 15:06:00,78.4,68.2,29.95,NW,305,4.0,8.0,71,0.00,,,0.00,meteohub,2013-05-01 01:06:00,
2013-04-30 15:12:00,78.6,67.6,29.95,WNW,295,3.0,7.0,69,0.00,,,0.00,meteohub,2013-05-01 01:12:00,
2013-04-30 15:17:00,78.8,68.5,29.95,NW,321,4.0,7.0,71,0.00,,,0.00,meteohub,2013-05-01 01:17:00,
2013-04-30 15:22:00,79.3,69.4,29.95,NW,308,4.0,7.0,72,0.00,,,0.00,meteohub,2013-05-01 01:22:00,
2013-04-30 15:27:00,79.7,67.8,29.95,WNW,282,1.0,8.0,67,0.00,,,0.00,meteohub,2013-05-01 01:27:00,
2013-04-30 15:32:00,80.4,68.5,29.95,West,281,5.0,8.0,67,0.00,,,0.00,meteohub,2013-05-01 01:32:00,
2013-04-30 15:37:00,80.8,67.5,29.94,WNW,292,3.0,8.0,64,0.00,,,0.00,meteohub,2013-05-01 01:37:00,
2013-04-30 15:42:00,81.3,67.5,29.94,West,275,2.0,8.0,63,0.00,,,0.00,meteohub,2013-05-01 01:42:00,
2013-04-30 15:47:00,81.7,67.8,29.94,WSW,256,4.0,8.0,63,0.00,,,0.00,meteohub,2013-05-01 01:47:00,
2013-04-30 15:52:00,81.9,67.1,29.94,NW,311,2.0,7.0,61,0.00,,,0.00,meteohub,2013-05-01 01:52:00,
2013-04-30 15:57:00,81.5,66.7,29.94,WNW,283,5.0,7.0,61,0.00,,,0.00,meteohub,2013-05-01 01:57:00,
2013-04-30 16:02:00,81.3,67.1,29.94,WSW,253,2.0,7.0,62,0.00,,,0.00,meteohub,2013-05-01 02:02:00,
2013-04-30 16:07:00,81.3,68.0,29.94,WNW,298,5.0,8.0,64,0.00,,,0.00,meteohub,2013-05-01 02:07:00,
2013-04-30 16:12:00,81.1,66.9,29.94,NW,306,4.0,8.0,62,0.00,,,0.00,meteohub,2013-05-01 02:12:00,
2013-04-30 16:17:00,81.0,67.1,29.94,WNW,294,3.0,9.0,63,0.00,,,0.00,meteohub,2013-05-01 02:17:00,
2013-04-30 16:22:00,81.7,68.7,29.94,WNW,285,4.0,9.0,65,0.00,,,0.00,meteohub,2013-05-01 02:22:00,
2013-04-30 16:27:00,81.5,67.6,29.94,WSW,257,6.0,9.0,63,0.00,,,0.00,meteohub,2013-05-01 02:27:00,
2013-04-30 16:32:00,81.1,67.3,29.94,WNW,300,5.0,8.0,63,0.00,,,0.00,meteohub,2013-05-01 02:32:00,
2013-04-30 16:37:00,81.1,67.3,29.94,WNW,288,1.0,8.0,63,0.00,,,0.00,meteohub,2013-05-01 02:37:00,
2013-04-30 16:42:00,81.3,68.0,29.94,NW,311,3.0,8.0,64,0.00,,,0.00,meteohub,2013-05-01 02:42:00,
2013-04-30 16:47:00,81.5,69.1,29.94,WNW,290,4.0,6.0,66,0.00,,,0.00,meteohub,2013-05-01 02:47:00,
2013-04-30 16:52:00,81.3,67.5,29.94,NW,311,7.0,7.0,63,0.00,,,0.00,meteohub,2013-05-01 02:52:00,
2013-04-30 16:57:00,81.0,67.6,29.94,West,267,3.0,8.0,64,0.00,,,0.00,meteohub,2013-05-01 02:57:00,
2013-04-30 17:02:00,81.7,68.7,29.94,West,276,4.0,8.0,65,0.00,,,0.00,meteohub,2013-05-01 03:02:00,
2013-04-30 17:07:00,81.1,67.3,29.94,WNW,286,4.0,8.0,63,0.00,,,0.00,meteohub,2013-05-01 03:07:00,
2013-04-30 17:12:00,81.1,67.8,29.94,NW,312,4.0,7.0,64,0.00,,,0.00,meteohub,2013-05-01 03:12:00,
2013-04-30 17:17:00,81.0,66.7,29.94,WNW,292,3.0,7.0,62,0.00,,,0.00,meteohub,2013-05-01 03:17:00,
2013-04-30 17:22:00,80.6,66.9,29.94,NW,315,3.0,8.0,63,0.00,,,0.00,meteohub,2013-05-01 03:22:00,
2013-04-30 17:27:00,80.6,66.9,29.94,NW,311,3.0,8.0,63,0.00,,,0.00,meteohub,2013-05-01 03:27:00,
2013-04-30 17:32:00,80.2,66.6,29.94,WNW,285,3.0,8.0,63,0.00,,,0.00,meteohub,2013-05-01 03:32:00,
2013-04-30 17:37:00,80.2,66.9,29.94,WNW,300,5.0,8.0,64,0.00,,,0.00,meteohub,2013-05-01 03:37:00,
2013-04-30 17:42:00,80.2,67.5,29.95,West,270,3.0,8.0,65,0.00,,,0.00,meteohub,2013-05-01 03:42:00,
2013-04-30 17:47:00,80.4,67.1,29.95,WNW,295,5.0,7.0,64,0.00,,,0.00,meteohub,2013-05-01 03:47:00,
2013-04-30 17:52:00,80.2,66.6,29.95,WNW,287,3.0,7.0,63,0.00,,,0.00,meteohub,2013-05-01 03:52:00,
2013-04-30 17:57:00,80.1,66.4,29.96,WNW,284,3.0,7.0,63,0.00,,,0.00,meteohub,2013-05-01 03:57:00,
2013-04-30 18:01:00,79.9,66.6,29.96,NW,316,3.0,7.0,64,0.00,,,0.00,meteohub,2013-05-01 04:01:00,
2013-04-30 18:02:00,80.1,66.7,29.96,NW,323,4.0,7.0,64,0.00,,,0.00,meteohub,2013-05-01 04:02:00,
2013-04-30 18:07:00,79.9,67.1,29.96,West,266,3.0,7.0,65,0.00,,,0.00,meteohub,2013-05-01 04:07:00,
2013-04-30 18:08:00,80.1,66.7,29.96,NW,304,3.0,7.0,64,0.00,,,0.00,meteohub,2013-05-01 04:08:00,
2013-04-30 18:13:00,79.5,66.2,29.96,NW,304,3.0,7.0,64,0.00,,,0.00,meteohub,2013-05-01 04:13:00,
2013-04-30 18:18:00,79.3,66.6,29.96,WNW,286,3.0,5.0,65,0.00,,,0.00,meteohub,2013-05-01 04:18:00,
2013-04-30 18:23:00,79.2,67.6,29.96,WNW,291,4.0,6.0,68,0.00,,,0.00,meteohub,2013-05-01 04:23:00,
2013-04-30 18:29:00,78.8,67.3,29.97,WNW,295,3.0,6.0,68,0.00,,,0.00,meteohub,2013-05-01 04:29:00,
2013-04-30 18:34:00,78.4,66.9,29.97,NNW,328,3.0,6.0,68,0.00,,,0.00,meteohub,2013-05-01 04:34:00,
2013-04-30 18:39:00,78.1,66.7,29.97,WNW,295,3.0,6.0,68,0.00,,,0.00,meteohub,2013-05-01 04:39:00,
2013-04-30 18:44:00,78.1,67.5,29.97,NW,321,1.0,6.0,70,0.00,,,0.00,meteohub,2013-05-01 04:44:00,
2013-04-30 18:49:00,77.9,67.8,29.98,WNW,303,3.0,5.0,71,0.00,,,0.00,meteohub,2013-05-01 04:49:00,
2013-04-30 18:54:00,77.5,67.8,29.98,NW,318,2.0,5.0,72,0.00,,,0.00,meteohub,2013-05-01 04:54:00,
2013-04-30 18:59:00,77.4,67.6,29.98,NNW,337,1.0,7.0,72,0.00,,,0.00,meteohub,2013-05-01 04:59:00,
2013-04-30 19:04:00,77.0,67.3,29.98,North,1,0.0,7.0,72,0.00,,,0.00,meteohub,2013-05-01 05:04:00,
2013-04-30 19:09:00,76.8,67.1,29.99,North,5,3.0,7.0,72,0.00,,,0.00,meteohub,2013-05-01 05:09:00,
2013-04-30 19:14:00,76.8,67.1,29.99,NNW,347,0.0,4.0,72,0.00,,,0.00,meteohub,2013-05-01 05:14:00,
2013-04-30 19:19:00,76.6,66.9,29.99,North,356,1.0,4.0,72,0.00,,,0.00,meteohub,2013-05-01 05:19:00,
2013-04-30 19:24:00,76.6,66.9,29.99,NE,40,0.0,3.0,72,0.00,,,0.00,meteohub,2013-05-01 05:24:00,
2013-04-30 19:29:00,76.5,66.7,29.99,WNW,298,0.0,2.0,72,0.00,,,0.00,meteohub,2013-05-01 05:29:00,
2013-04-30 19:34:00,76.5,67.1,29.99,NNW,331,0.0,2.0,73,0.00,,,0.00,meteohub,2013-05-01 05:34:00,
2013-04-30 19:39:00,76.3,66.6,29.99,NE,36,4.0,4.0,72,0.00,,,0.00,meteohub,2013-05-01 05:39:00,
2013-04-30 19:44:00,76.1,66.4,29.99,North,5,1.0,4.0,72,0.00,,,0.00,meteohub,2013-05-01 05:44:00,
2013-04-30 19:49:00,75.9,66.2,29.99,NE,50,4.0,5.0,72,0.00,,,0.00,meteohub,2013-05-01 05:49:00,
2013-04-30 19:54:00,75.7,66.0,29.99,ENE,57,0.0,5.0,72,0.00,,,0.00,meteohub,2013-05-01 05:54:00,
2013-04-30 20:00:00,75.7,65.7,30.00,NE,52,1.0,5.0,71,0.00,,,0.00,meteohub,2013-05-01 06:00:00,
2013-04-30 20:05:00,75.7,65.7,30.00,NE,46,1.0,5.0,71,0.00,,,0.00,meteohub,2013-05-01 06:05:00,
2013-04-30 20:10:00,75.7,65.7,30.00,NE,54,1.0,5.0,71,0.00,,,0.00,meteohub,2013-05-01 06:10:00,
2013-04-30 20:15:00,75.6,65.5,30.00,NE,51,0.0,5.0,71,0.00,,,0.00,meteohub,2013-05-01 06:15:00,
2013-04-30 20:20:00,75.6,65.5,30.00,NE,41,1.0,4.0,71,0.00,,,0.00,meteohub,2013-05-01 06:20:00,
2013-04-30 20:25:00,75.4,65.3,30.00,NE,51,2.0,3.0,71,0.00,,,0.00,meteohub,2013-05-01 06:25:00,
2013-04-30 20:30:00,75.4,65.7,30.00,NE,50,1.0,3.0,72,0.00,,,0.00,meteohub,2013-05-01 06:30:00,
2013-04-30 20:35:00,75.4,65.7,30.00,ENE,65,1.0,3.0,72,0.00,,,0.00,meteohub,2013-05-01 06:35:00,
2013-04-30 20:40:00,75.0,65.3,30.00,NNE,33,1.0,3.0,72,0.00,,,0.00,meteohub,2013-05-01 06:40:00,
2013-04-30 20:45:00,75.0,64.9,30.01,NE,49,1.0,3.0,71,0.00,,,0.00,meteohub,2013-05-01 06:45:00,
2013-04-30 20:50:00,75.0,64.9,30.01,NE,44,0.0,3.0,71,0.00,,,0.00,meteohub,2013-05-01 06:50:00,
2013-04-30 20:55:00,75.0,65.3,30.01,NE,36,0.0,3.0,72,0.00,,,0.00,meteohub,2013-05-01 06:55:00,
2013-04-30 21:00:00,74.8,64.8,30.01,NE,36,0.0,2.0,71,0.00,,,0.00,meteohub,2013-05-01 07:00:00,
2013-04-30 21:05:00,74.7,65.1,30.01,NE,36,0.0,1.0,72,0.00,,,0.00,meteohub,2013-05-01 07:05:00,
2013-04-30 21:10:00,74.5,64.9,30.01,NE,36,0.0,1.0,72,0.00,,,0.00,meteohub,2013-05-01 07:10:00,
2013-04-30 21:15:00,74.5,64.9,30.01,NE,36,0.0,1.0,72,0.00,,,0.00,meteohub,2013-05-01 07:15:00,
2013-04-30 21:20:00,74.3,64.8,30.01,NE,36,0.0,1.0,72,0.00,,,0.00,meteohub,2013-05-01 07:20:00,
2013-04-30 21:25:00,74.1,64.6,30.02,NE,37,0.0,1.0,72,0.00,,,0.00,meteohub,2013-05-01 07:25:00,
2013-04-30 21:31:00,74.1,64.6,30.02,East,80,1.0,2.0,72,0.00,,,0.00,meteohub,2013-05-01 07:31:00,
2013-04-30 21:36:00,73.9,64.4,30.02,ENE,73,0.0,2.0,72,0.00,,,0.00,meteohub,2013-05-01 07:36:00,
2013-04-30 21:41:00,74.1,64.6,30.02,East,85,2.0,2.0,72,0.00,,,0.00,meteohub,2013-05-01 07:41:00,
2013-04-30 21:46:00,74.1,64.6,30.02,ENE,75,0.0,2.0,72,0.00,,,0.00,meteohub,2013-05-01 07:46:00,
2013-04-30 21:51:00,74.3,64.8,30.02,East,81,0.0,3.0,72,0.00,,,0.00,meteohub,2013-05-01 07:51:00,
2013-04-30 21:56:00,74.5,64.9,30.02,East,81,0.0,3.0,72,0.00,,,0.00,meteohub,2013-05-01 07:56:00,
2013-04-30 22:01:00,74.7,65.1,30.02,NNW,333,1.0,1.0,72,0.00,,,0.00,meteohub,2013-05-01 08:01:00,
2013-04-30 22:06:00,74.7,65.1,30.02,NE,46,0.0,2.0,72,0.00,,,0.00,meteohub,2013-05-01 08:06:00,
2013-04-30 22:11:00,74.8,64.8,30.02,NE,49,0.0,2.0,71,0.00,,,0.00,meteohub,2013-05-01 08:11:00,
2013-04-30 22:16:00,74.8,64.8,30.03,NE,40,0.0,2.0,71,0.00,,,0.00,meteohub,2013-05-01 08:16:00,
2013-04-30 22:21:00,75.0,64.9,30.03,NNE,12,0.0,2.0,71,0.00,,,0.00,meteohub,2013-05-01 08:21:00,
2013-04-30 22:26:00,75.0,64.6,30.03,NNE,22,1.0,2.0,70,0.00,,,0.00,meteohub,2013-05-01 08:26:00,
2013-04-30 22:31:00,75.2,65.1,30.03,NNE,32,4.0,4.0,71,0.00,,,0.00,meteohub,2013-05-01 08:31:00,
2013-04-30 22:36:00,75.4,65.3,30.03,NE,40,1.0,4.0,71,0.00,,,0.00,meteohub,2013-05-01 08:36:00,
2013-04-30 22:41:00,75.4,65.3,30.03,North,1,1.0,4.0,71,0.00,,,0.00,meteohub,2013-05-01 08:41:00,
2013-04-30 22:46:00,75.4,65.7,30.02,NNE,32,2.0,4.0,72,0.00,,,0.00,meteohub,2013-05-01 08:46:00,
2013-04-30 22:51:00,75.4,65.7,30.02,NE,55,1.0,3.0,72,0.00,,,0.00,meteohub,2013-05-01 08:51:00,
2013-04-30 22:57:00,75.0,65.3,30.03,NNW,331,0.0,3.0,72,0.00,,,0.00,meteohub,2013-05-01 08:57:00,
2013-04-30 23:02:00,75.0,65.3,30.03,NNE,32,1.0,4.0,72,0.00,,,0.00,meteohub,2013-05-01 09:02:00,
2013-04-30 23:07:00,74.8,65.1,30.02,NNE,30,0.0,4.0,72,0.00,,,0.00,meteohub,2013-05-01 09:07:00,
2013-04-30 23:12:00,74.8,65.1,30.02,ENE,57,0.0,4.0,72,0.00,,,0.00,meteohub,2013-05-01 09:12:00,
2013-04-30 23:17:00,74.7,65.1,30.02,ENE,60,1.0,2.0,72,0.00,,,0.00,meteohub,2013-05-01 09:17:00,
2013-04-30 23:22:00,74.7,65.1,30.02,ENE,60,0.0,2.0,72,0.00,,,0.00,meteohub,2013-05-01 09:22:00,
2013-04-30 23:27:00,74.5,64.9,30.02,ENE,58,0.0,1.0,72,0.00,,,0.00,meteohub,2013-05-01 09:27:00,
2013-04-30 23:32:00,74.5,64.9,30.02,ENE,58,0.0,1.0,72,0.00,,,0.00,meteohub,2013-05-01 09:32:00,
2013-04-30 23:37:00,74.3,64.8,30.01,ENE,58,0.0,1.0,72,0.00,,,0.00,meteohub,2013-05-01 09:37:00,
2013-04-30 23:42:00,74.3,64.8,30.01,ENE,58,0.0,2.0,72,0.00,,,0.00,meteohub,2013-05-01 09:42:00,
2013-04-30 23:47:00,74.3,64.8,30.01,NE,36,2.0,2.0,72,0.00,,,0.00,meteohub,2013-05-01 09:47:00,
2013-04-30 23:52:00,74.3,64.8,30.01,NE,36,0.0,2.0,72,0.00,,,0.00,meteohub,2013-05-01 09:52:00,
2013-04-30 23:57:00,74.3,64.8,30.01,North,352,0.0,2.0,72,0.00,,,0.00,meteohub,2013-05-01 09:57:00,